首页
METAR-TAF:

METAR-TAF

机场 :

Muskoka, 安大略省, 加拿大

纬度: 44-58N, 经度: 079-18W, 海拔: 280米

当前天气观测

该预报发布于30分钟前的16:00 UTC
风速5节,风向西转西北,在南转西南北转西北之间变化
温度 25°C
湿度 44%
气压 1011 hPa
能見度: 14.5公里
天空无云

METAR: CYQA 051600Z AUTO 29005KT 200V330 9SM CLR 25/12 A2985 RMK SLP108 DENSITY ALT 2300FT

时间: 12:30 (16:30 UTC)

预报

该预报发布于2小时和48分钟前的13:42 UTC
预报有效从05日的 14点(UTC)到 06日的 02点(UTC)
风速3节,风向多变
能見度: 10公里
散云层高于6000英尺
成为
从 05日的 15点(UTC)到 05日的 17点(UTC)
风速8节,风向西
从 05日的 2300点(UTC)
风速6节,风向西
能見度: 10公里
多云层高于12000英尺

TAF: CYQA 051342Z 0514/0602 VRB03KT P6SM SCT060 BECMG 0515/0517 26008KT FM052300 27006KT P6SM BKN120 RMK FCST BASED ON AUTO OBS. NXT FCST BY 052000Z

超过4000个机场的气象观测和天气预报(METAR&TAF报告)。

可查询的气象台以黄色和红色小点在地图上表示。

将鼠标移到小点上方,可查看气象台名称。

然后点击查看天气观测和预报。

如需切换地图:点击带黑十字的绿色按钮放大地图;点击带横线的绿色按钮缩小地图;或者点击绿色箭头查看邻近地区的地图。


METAR-TAF: